createdAt,value
2022-10-07T00:01:15.900Z,13.03
2022-10-07T00:03:44.214Z,12.60
2022-10-07T00:06:14.678Z,14.50
2022-10-07T00:08:44.989Z,14.77
2022-10-07T00:11:16.431Z,12.83
2022-10-07T00:13:47.220Z,12.17
2022-10-07T00:16:18.225Z,14.30
2022-10-07T00:18:46.753Z,12.10
2022-10-07T00:21:16.687Z,11.67
2022-10-07T00:23:46.678Z,12.27
2022-10-07T00:26:18.279Z,11.87
2022-10-07T00:28:46.893Z,11.47
2022-10-07T00:31:18.298Z,12.40
2022-10-07T00:33:46.924Z,12.03
2022-10-07T00:36:19.283Z,11.47
2022-10-07T00:38:51.195Z,12.90
2022-10-07T00:41:22.688Z,12.40
2022-10-07T00:43:51.375Z,12.03
2022-10-07T00:46:29.420Z,13.03
2022-10-07T00:49:01.505Z,13.60
2022-10-07T00:51:31.179Z,13.40
2022-10-07T00:54:00.224Z,11.67
2022-10-07T00:56:30.656Z,12.00
2022-10-07T00:58:59.953Z,12.50
2022-10-07T01:01:31.472Z,12.87
2022-10-07T01:03:59.772Z,12.17
2022-10-07T01:06:28.811Z,11.73
2022-10-07T01:08:57.646Z,12.20
2022-10-07T01:11:40.221Z,12.67
2022-10-07T01:14:16.130Z,12.70
2022-10-07T01:16:53.296Z,12.47
2022-10-07T01:19:41.496Z,12.20
2022-10-07T01:22:34.317Z,12.50
2022-10-07T01:25:19.216Z,12.80
2022-10-07T01:27:54.381Z,12.57
2022-10-07T01:30:22.903Z,11.80
2022-10-07T01:32:56.036Z,12.33
2022-10-07T01:35:28.207Z,12.33
2022-10-07T01:38:01.364Z,12.83
2022-10-07T01:40:37.003Z,12.23
2022-10-07T01:43:06.943Z,11.97
2022-10-07T01:45:40.077Z,12.10
2022-10-07T01:48:08.858Z,11.97
2022-10-07T01:50:38.227Z,10.67
2022-10-07T01:53:17.903Z,11.47
2022-10-07T01:55:56.493Z,11.27
2022-10-07T01:58:53.325Z,12.70
2022-10-07T02:01:29.811Z,12.10
2022-10-07T02:04:20.435Z,11.93
2022-10-07T02:06:53.933Z,13.13
2022-10-07T02:09:29.568Z,11.90
2022-10-07T02:12:05.738Z,11.40
2022-10-07T02:14:39.938Z,12.10
2022-10-07T02:17:14.163Z,12.07
2022-10-07T02:19:49.337Z,12.03
2022-10-07T02:22:24.752Z,12.77
2022-10-07T02:24:55.549Z,11.90
2022-10-07T02:27:28.944Z,11.27
2022-10-07T02:30:03.071Z,11.83
2022-10-07T02:32:35.016Z,12.47
2022-10-07T02:35:13.221Z,12.73
2022-10-07T02:37:45.010Z,13.20
2022-10-07T02:40:13.386Z,13.03
2022-10-07T02:42:48.950Z,12.23
2022-10-07T02:45:26.860Z,12.90
2022-10-07T02:48:01.719Z,13.43
2022-10-07T02:50:37.580Z,12.40
2022-10-07T02:53:07.069Z,13.63
2022-10-07T02:55:36.777Z,12.97
2022-10-07T02:58:09.869Z,12.37
2022-10-07T03:00:47.189Z,13.00
2022-10-07T03:03:17.287Z,11.33
2022-10-07T03:05:52.727Z,12.23
2022-10-07T03:08:22.550Z,12.57
2022-10-07T03:10:51.431Z,11.73
2022-10-07T03:13:20.203Z,12.73
2022-10-07T03:15:56.956Z,11.50
2022-10-07T03:18:28.490Z,11.97
2022-10-07T03:21:16.225Z,11.90
2022-10-07T03:23:44.791Z,13.83
2022-10-07T03:26:13.862Z,12.13
2022-10-07T03:28:42.284Z,12.10
2022-10-07T03:31:15.296Z,11.80
2022-10-07T03:33:48.579Z,12.97
2022-10-07T03:36:16.991Z,12.37
2022-10-07T03:38:48.328Z,12.70
2022-10-07T03:41:16.728Z,12.87
2022-10-07T03:43:46.399Z,13.40
2022-10-07T03:46:21.064Z,12.83
2022-10-07T03:48:51.550Z,13.23
2022-10-07T03:51:21.482Z,13.47
2022-10-07T03:53:49.854Z,14.20
2022-10-07T03:56:18.451Z,14.47
2022-10-07T03:58:46.780Z,14.43
2022-10-07T04:01:15.657Z,12.93
2022-10-07T04:03:51.031Z,12.37
2022-10-07T04:06:19.854Z,11.70
2022-10-07T04:08:52.746Z,12.63
2022-10-07T04:11:21.595Z,11.73
2022-10-07T04:13:52.764Z,11.97
2022-10-07T04:16:23.072Z,13.30
2022-10-07T04:18:55.985Z,11.50
2022-10-07T04:21:25.626Z,11.03
2022-10-07T04:23:53.861Z,12.23
2022-10-07T04:26:22.209Z,10.93
2022-10-07T04:28:51.543Z,11.50
2022-10-07T04:31:22.486Z,12.23
2022-10-07T04:33:59.092Z,11.37
2022-10-07T04:36:32.985Z,13.53
2022-10-07T04:39:07.140Z,14.60
2022-10-07T04:41:42.967Z,15.77
2022-10-07T04:44:17.009Z,14.37
2022-10-07T04:46:56.490Z,13.40
2022-10-07T04:49:28.446Z,14.43
2022-10-07T04:51:58.899Z,13.20
2022-10-07T04:54:32.050Z,13.37
2022-10-07T04:57:00.475Z,14.93
2022-10-07T04:59:30.248Z,14.00
2022-10-07T05:01:59.747Z,14.33
2022-10-07T05:04:31.166Z,12.90
2022-10-07T05:06:59.992Z,11.93
2022-10-07T05:09:30.118Z,11.40
2022-10-07T05:11:58.477Z,11.73
2022-10-07T05:14:26.920Z,11.47
2022-10-07T05:16:57.412Z,14.37
2022-10-07T05:19:30.988Z,15.33
2022-10-07T05:21:59.634Z,13.63
2022-10-07T05:24:28.779Z,13.00
2022-10-07T05:26:57.110Z,12.93
2022-10-07T05:29:25.397Z,12.57
2022-10-07T05:31:55.697Z,10.87
2022-10-07T05:34:27.136Z,12.47
2022-10-07T05:36:59.208Z,10.33
2022-10-07T05:39:28.033Z,12.93
2022-10-07T05:42:01.904Z,11.00
2022-10-07T05:44:37.813Z,12.07
2022-10-07T05:47:07.355Z,11.40
2022-10-07T05:49:36.594Z,10.73
2022-10-07T05:52:07.871Z,11.00
2022-10-07T05:54:36.501Z,12.10
2022-10-07T05:57:05.695Z,11.23
2022-10-07T05:59:35.454Z,10.47
2022-10-07T06:02:05.410Z,11.40
2022-10-07T06:04:34.362Z,11.80
2022-10-07T06:07:04.215Z,12.50
2022-10-07T06:09:51.495Z,13.57
2022-10-07T06:12:36.723Z,11.33
2022-10-07T06:15:10.526Z,11.17
2022-10-07T06:17:45.768Z,12.77
2022-10-07T06:20:17.795Z,11.40
2022-10-07T06:22:47.163Z,12.67
2022-10-07T06:25:18.661Z,11.47
2022-10-07T06:27:53.573Z,13.73
2022-10-07T06:30:22.720Z,11.53
2022-10-07T06:32:51.567Z,12.80
2022-10-07T06:35:20.135Z,13.57
2022-10-07T06:37:50.601Z,13.27
2022-10-07T06:40:20.425Z,11.40
2022-10-07T06:42:48.875Z,13.03
2022-10-07T06:45:19.862Z,11.40
2022-10-07T06:47:50.539Z,10.97
2022-10-07T06:50:19.030Z,13.80
2022-10-07T06:52:47.519Z,14.30
2022-10-07T06:55:15.883Z,11.70
2022-10-07T06:57:46.583Z,9.90
2022-10-07T07:00:18.337Z,9.00
2022-10-07T07:02:47.926Z,10.33
2022-10-07T07:05:17.061Z,11.33
2022-10-07T07:07:47.826Z,11.73
2022-10-07T07:10:16.483Z,12.90
2022-10-07T07:12:50.301Z,12.63
2022-10-07T07:15:19.162Z,13.57
2022-10-07T07:17:48.451Z,12.33
2022-10-07T07:20:17.164Z,12.10
2022-10-07T07:22:46.130Z,12.53
2022-10-07T07:25:14.748Z,11.37
2022-10-07T07:27:44.415Z,10.07
2022-10-07T07:30:15.438Z,10.20
2022-10-07T07:32:45.786Z,9.90
2022-10-07T07:35:14.388Z,8.97
2022-10-07T07:37:43.416Z,9.73
2022-10-07T07:40:11.951Z,8.20
2022-10-07T07:42:40.293Z,9.87
2022-10-07T07:45:09.202Z,9.03
2022-10-07T07:47:38.999Z,8.53
2022-10-07T07:50:09.449Z,7.67
2022-10-07T07:52:37.782Z,8.83
2022-10-07T07:55:08.619Z,8.90
2022-10-07T07:57:38.551Z,9.07
2022-10-07T08:00:11.598Z,8.50
2022-10-07T08:02:44.459Z,7.83
2022-10-07T08:05:22.875Z,8.30
2022-10-07T08:07:53.449Z,7.30
2022-10-07T08:10:22.576Z,8.23
2022-10-07T08:12:51.142Z,7.70
2022-10-07T08:15:19.428Z,8.70
2022-10-07T08:17:49.595Z,7.77
2022-10-07T08:20:19.260Z,8.63
2022-10-07T08:22:47.644Z,7.17
2022-10-07T08:25:16.176Z,7.57
2022-10-07T08:27:45.717Z,7.83
2022-10-07T08:30:14.763Z,6.50
2022-10-07T08:32:43.275Z,5.87
2022-10-07T08:35:12.907Z,5.60
2022-10-07T08:37:41.011Z,5.33
2022-10-07T08:40:15.849Z,5.90
2022-10-07T08:42:44.894Z,4.90
2022-10-07T08:45:31.793Z,5.87
2022-10-07T08:48:04.075Z,5.23
2022-10-07T08:50:43.981Z,4.60
2022-10-07T08:53:17.793Z,5.50
2022-10-07T08:55:49.762Z,5.33
2022-10-07T08:58:40.851Z,4.00
2022-10-07T09:01:22.389Z,3.90
2022-10-07T09:03:59.394Z,4.78
2022-10-07T09:06:35.514Z,4.13
2022-10-07T09:09:11.316Z,3.90
2022-10-07T09:11:41.931Z,4.50
2022-10-07T09:14:21.787Z,4.57
2022-10-07T09:16:51.356Z,4.78
2022-10-07T09:19:29.751Z,4.00
2022-10-07T09:22:05.934Z,4.60
2022-10-07T09:24:36.216Z,3.47
2022-10-07T09:27:14.366Z,4.18
2022-10-07T09:29:43.912Z,4.00
2022-10-07T09:32:14.887Z,4.38
2022-10-07T09:34:43.542Z,4.35
2022-10-07T09:37:17.490Z,4.18
2022-10-07T09:39:48.500Z,4.50
2022-10-07T09:42:34.707Z,4.38
2022-10-07T09:45:06.945Z,4.47
2022-10-07T09:47:40.493Z,3.90
2022-10-07T09:50:31.754Z,4.57
2022-10-07T09:53:02.979Z,3.80
2022-10-07T09:55:37.668Z,4.55
2022-10-07T09:58:08.076Z,4.85
2022-10-07T10:00:43.966Z,4.75
2022-10-07T10:03:12.855Z,3.90
2022-10-07T10:05:51.049Z,4.38
2022-10-07T10:08:29.300Z,3.50
2022-10-07T10:10:59.533Z,4.40
2022-10-07T10:13:31.732Z,3.15
2022-10-07T10:16:01.166Z,3.22
2022-10-07T10:18:36.408Z,3.33
2022-10-07T10:21:27.421Z,2.72
2022-10-07T10:23:59.191Z,3.08
2022-10-07T10:26:56.448Z,2.72
2022-10-07T10:29:46.564Z,2.45
2022-10-07T10:32:48.829Z,2.20
2022-10-07T10:35:23.299Z,3.28
2022-10-07T10:38:11.023Z,2.45
2022-10-07T10:40:43.298Z,2.78
2022-10-07T10:43:23.805Z,2.17
2022-10-07T10:46:09.695Z,2.60
2022-10-07T10:48:44.059Z,2.30
2022-10-07T10:51:32.150Z,2.10
2022-10-07T10:54:17.381Z,2.78
2022-10-07T10:56:53.394Z,2.35
2022-10-07T10:59:40.754Z,2.10
2022-10-07T11:02:33.680Z,3.00
2022-10-07T11:05:06.342Z,2.85
2022-10-07T11:07:38.505Z,2.63
2022-10-07T11:10:17.081Z,2.03
2022-10-07T11:12:51.876Z,2.22
2022-10-07T11:15:24.386Z,2.03
2022-10-07T11:17:55.563Z,2.20
2022-10-07T11:20:29.327Z,2.83
2022-10-07T11:23:03.441Z,2.65
2022-10-07T11:25:37.332Z,3.17
2022-10-07T11:28:17.900Z,3.00
2022-10-07T11:30:53.866Z,3.17
2022-10-07T11:33:28.718Z,5.90
2022-10-07T11:36:03.322Z,4.13
2022-10-07T11:38:35.134Z,3.38
2022-10-07T11:41:10.453Z,2.58
2022-10-07T11:43:46.271Z,3.35
2022-10-07T11:46:22.599Z,2.83
2022-10-07T11:49:00.900Z,2.80
2022-10-07T11:51:34.299Z,2.55
2022-10-07T11:54:06.507Z,2.63
2022-10-07T11:56:39.262Z,3.65
2022-10-07T11:59:09.082Z,2.78
2022-10-07T12:01:47.555Z,3.00
2022-10-07T12:04:38.344Z,2.15
2022-10-07T12:07:39.669Z,2.53
2022-10-07T12:10:23.270Z,2.78
2022-10-07T12:12:54.971Z,3.40
2022-10-07T12:15:34.742Z,2.55
2022-10-07T12:18:28.948Z,2.97
2022-10-07T12:21:07.293Z,2.78
2022-10-07T12:23:42.731Z,3.42
2022-10-07T12:26:51.372Z,2.97
2022-10-07T12:30:02.337Z,2.83
2022-10-07T12:33:01.817Z,3.20
2022-10-07T12:35:53.666Z,3.10
2022-10-07T12:38:25.730Z,2.95
2022-10-07T12:41:23.031Z,3.53
2022-10-07T12:43:58.346Z,3.58
2022-10-07T12:46:32.063Z,2.63
2022-10-07T12:49:05.052Z,2.95
2022-10-07T12:51:39.273Z,3.15
2022-10-07T12:54:16.011Z,2.70
2022-10-07T12:56:45.578Z,3.13
2022-10-07T12:59:50.766Z,3.05
2022-10-07T13:03:13.556Z,2.88
2022-10-07T13:06:22.235Z,3.40
2022-10-07T13:09:25.917Z,3.10
2022-10-07T13:12:29.878Z,2.88
2022-10-07T13:15:07.593Z,3.03
2022-10-07T13:17:43.651Z,3.42
2022-10-07T13:20:36.204Z,3.30
2022-10-07T13:23:14.186Z,2.72
2022-10-07T13:25:49.322Z,2.58
2022-10-07T13:28:22.324Z,2.50
2022-10-07T13:30:52.153Z,3.45
2022-10-07T13:33:24.882Z,2.97
2022-10-07T13:36:06.155Z,3.35
2022-10-07T13:38:36.949Z,2.78
2022-10-07T13:41:12.659Z,2.65
2022-10-07T13:43:43.700Z,2.95
2022-10-07T13:46:14.572Z,2.60
2022-10-07T13:48:45.789Z,2.53
2022-10-07T13:51:22.621Z,3.00
2022-10-07T13:53:58.178Z,3.28
2022-10-07T13:56:30.890Z,2.45
2022-10-07T13:58:59.801Z,2.58
2022-10-07T14:01:31.327Z,3.03
2022-10-07T14:04:25.271Z,2.80
2022-10-07T14:06:57.841Z,2.40
2022-10-07T14:09:38.942Z,2.97
2022-10-07T14:12:10.141Z,2.63
2022-10-07T14:14:40.957Z,3.92
2022-10-07T14:17:12.700Z,3.35
2022-10-07T14:19:41.144Z,4.07
2022-10-07T14:22:19.887Z,3.33
2022-10-07T14:24:59.838Z,4.07
2022-10-07T14:28:04.563Z,3.10
2022-10-07T14:30:56.134Z,3.58
2022-10-07T14:33:59.992Z,4.20
2022-10-07T14:36:28.645Z,3.28
2022-10-07T14:39:01.842Z,3.45
2022-10-07T14:41:32.627Z,3.75
2022-10-07T14:44:03.814Z,4.03
2022-10-07T14:46:32.375Z,3.97
2022-10-07T14:49:00.797Z,3.50
2022-10-07T14:51:29.861Z,3.40
2022-10-07T14:54:03.047Z,3.35
2022-10-07T14:56:34.301Z,2.92
2022-10-07T14:59:02.786Z,3.42
2022-10-07T15:01:31.044Z,3.97
2022-10-07T15:03:59.611Z,2.85
2022-10-07T15:06:29.267Z,3.22
2022-10-07T15:08:57.534Z,4.07
2022-10-07T15:11:25.683Z,4.10
2022-10-07T15:13:55.335Z,3.67
2022-10-07T15:16:26.546Z,4.10
2022-10-07T15:18:55.116Z,3.88
2022-10-07T15:21:23.848Z,4.80
2022-10-07T15:23:53.242Z,4.55
2022-10-07T15:26:24.304Z,4.40
2022-10-07T15:28:56.188Z,4.30
2022-10-07T15:31:26.082Z,3.88
2022-10-07T15:33:58.200Z,3.50
2022-10-07T15:36:27.602Z,3.90
2022-10-07T15:38:56.682Z,3.78
2022-10-07T15:41:36.610Z,4.47
2022-10-07T15:44:09.081Z,3.60
2022-10-07T15:46:37.259Z,3.63
2022-10-07T15:49:06.043Z,3.00
2022-10-07T15:51:36.270Z,3.70
2022-10-07T15:54:06.170Z,3.78
2022-10-07T15:56:35.065Z,3.75
2022-10-07T15:59:03.547Z,3.80
2022-10-07T16:01:33.135Z,4.85
2022-10-07T16:04:03.753Z,3.83
2022-10-07T16:06:34.188Z,5.32
2022-10-07T16:09:02.880Z,5.53
2022-10-07T16:11:33.177Z,4.50
2022-10-07T16:14:03.651Z,5.40
2022-10-07T16:16:33.963Z,5.28
2022-10-07T16:19:02.757Z,4.85
2022-10-07T16:21:32.829Z,5.68
2022-10-07T16:24:04.666Z,4.28
2022-10-07T16:26:35.703Z,5.13
2022-10-07T16:29:23.195Z,5.72
2022-10-07T16:31:58.380Z,6.35
2022-10-07T16:34:28.615Z,7.10
2022-10-07T16:36:59.061Z,5.72
2022-10-07T16:39:27.187Z,4.32
2022-10-07T16:41:56.459Z,5.82
2022-10-07T16:44:25.669Z,4.82
2022-10-07T16:46:57.041Z,5.15
2022-10-07T16:49:27.579Z,6.18
2022-10-07T16:51:56.403Z,5.25
2022-10-07T16:54:25.202Z,6.53
2022-10-07T16:56:54.088Z,8.10
2022-10-07T16:59:24.669Z,7.68
2022-10-07T17:01:56.412Z,6.82
2022-10-07T17:04:25.836Z,5.22
2022-10-07T17:06:55.085Z,4.32
2022-10-07T17:09:24.799Z,4.32
2022-10-07T17:11:53.297Z,5.03
2022-10-07T17:14:23.151Z,4.70
2022-10-07T17:16:54.098Z,5.18
2022-10-07T17:19:26.037Z,6.72
2022-10-07T17:21:56.001Z,7.07
2022-10-07T17:24:24.898Z,7.93
2022-10-07T17:26:53.746Z,7.47
2022-10-07T17:29:24.933Z,7.80
2022-10-07T17:31:53.726Z,7.63
2022-10-07T17:34:25.364Z,6.53
2022-10-07T17:36:54.137Z,6.53
2022-10-07T17:39:22.656Z,7.13
2022-10-07T17:41:51.001Z,6.85
2022-10-07T17:44:21.381Z,6.07
2022-10-07T17:46:50.259Z,5.78
2022-10-07T17:49:18.791Z,7.18
2022-10-07T17:51:48.415Z,7.10
2022-10-07T17:54:18.571Z,7.55
2022-10-07T17:56:47.821Z,7.10
2022-10-07T17:59:16.842Z,7.40
2022-10-07T18:01:45.579Z,7.03
2022-10-07T18:04:18.984Z,8.60
2022-10-07T18:06:50.662Z,8.27
2022-10-07T18:09:19.501Z,8.32
2022-10-07T18:12:05.904Z,8.45
2022-10-07T18:14:54.044Z,8.52
2022-10-07T18:17:24.512Z,7.95
2022-10-07T18:19:53.331Z,7.30
2022-10-07T18:22:24.252Z,7.28
2022-10-07T18:24:57.069Z,7.25
2022-10-07T18:27:27.076Z,6.85
2022-10-07T18:29:55.979Z,6.30
2022-10-07T18:32:25.092Z,6.63
2022-10-07T18:34:53.279Z,6.72
2022-10-07T18:37:23.842Z,6.18
2022-10-07T18:39:52.059Z,6.25
2022-10-07T18:42:20.749Z,6.80
2022-10-07T18:44:50.280Z,6.90
2022-10-07T18:47:18.500Z,6.13
2022-10-07T18:49:46.997Z,7.82
2022-10-07T18:52:15.575Z,8.10
2022-10-07T18:54:45.140Z,7.68
2022-10-07T18:57:13.562Z,16.73
2022-10-07T18:59:41.832Z,19.67
2022-10-07T19:02:12.434Z,15.55
2022-10-07T19:04:40.909Z,11.55
2022-10-07T19:07:09.210Z,10.27
2022-10-07T19:09:37.727Z,10.93
2022-10-07T19:12:29.405Z,11.93
2022-10-07T19:14:56.774Z,12.65
2022-10-07T19:17:25.134Z,11.73
2022-10-07T19:19:53.818Z,11.82
2022-10-07T19:22:22.473Z,11.18
2022-10-07T19:25:08.231Z,10.88
2022-10-07T19:27:37.873Z,11.80
2022-10-07T19:30:07.452Z,11.38
2022-10-07T19:32:35.713Z,12.02
2022-10-07T19:35:03.987Z,11.80
2022-10-07T19:37:33.186Z,12.13
2022-10-07T19:40:01.741Z,11.68
2022-10-07T19:42:30.957Z,11.68
2022-10-07T19:45:00.599Z,12.73
2022-10-07T19:47:28.830Z,12.93
2022-10-07T19:49:57.687Z,12.18
2022-10-07T19:52:27.753Z,11.63
2022-10-07T19:54:56.219Z,11.65
2022-10-07T19:57:24.744Z,12.50
2022-10-07T19:59:53.241Z,10.70
2022-10-07T20:02:23.142Z,11.95
2022-10-07T20:04:53.291Z,13.27
2022-10-07T20:07:23.652Z,13.43
2022-10-07T20:09:52.351Z,13.93
2022-10-07T20:12:21.269Z,14.45
2022-10-07T20:14:49.509Z,13.63
2022-10-07T20:17:18.261Z,13.52
2022-10-07T20:19:47.918Z,13.00
2022-10-07T20:22:16.639Z,13.15
2022-10-07T20:24:45.045Z,12.82
2022-10-07T20:27:13.378Z,13.43
2022-10-07T20:29:55.741Z,13.63
2022-10-07T20:32:24.217Z,12.93
2022-10-07T20:34:54.486Z,13.30
2022-10-07T20:37:23.062Z,13.75
2022-10-07T20:40:08.699Z,13.55
2022-10-07T20:42:37.191Z,14.00
2022-10-07T20:45:06.112Z,14.60
2022-10-07T20:47:36.044Z,15.25
2022-10-07T20:50:06.851Z,13.85
2022-10-07T20:52:36.936Z,14.13
2022-10-07T20:55:07.464Z,14.88
2022-10-07T20:57:37.961Z,14.15
2022-10-07T21:00:16.065Z,13.45
2022-10-07T21:02:45.317Z,14.18
2022-10-07T21:05:15.631Z,14.15
2022-10-07T21:07:43.907Z,13.38
2022-10-07T21:10:12.112Z,14.95
2022-10-07T21:12:41.047Z,15.57
2022-10-07T21:15:10.456Z,15.32
2022-10-07T21:17:40.651Z,18.95
2022-10-07T21:20:09.863Z,16.13
2022-10-07T21:22:39.610Z,16.00
2022-10-07T21:25:12.114Z,15.70
2022-10-07T21:27:40.300Z,14.98
2022-10-07T21:30:10.407Z,13.50
2022-10-07T21:32:38.606Z,14.70
2022-10-07T21:35:07.766Z,14.35
2022-10-07T21:37:36.313Z,14.23
2022-10-07T21:40:06.441Z,14.70
2022-10-07T21:42:34.968Z,14.48
2022-10-07T21:45:03.647Z,14.38
2022-10-07T21:47:31.876Z,15.13
2022-10-07T21:50:00.154Z,13.90
2022-10-07T21:52:29.387Z,14.70
2022-10-07T21:54:57.757Z,13.40
2022-10-07T21:57:27.351Z,14.68
2022-10-07T21:59:55.947Z,14.50
2022-10-07T22:02:24.171Z,15.02
2022-10-07T22:04:52.411Z,14.63
2022-10-07T22:07:38.546Z,13.73
2022-10-07T22:10:07.849Z,13.75
2022-10-07T22:12:37.763Z,14.55
2022-10-07T22:15:06.875Z,17.20
2022-10-07T22:17:35.058Z,15.02
2022-10-07T22:20:03.523Z,14.32
2022-10-07T22:22:32.033Z,14.00
2022-10-07T22:25:01.235Z,14.63
2022-10-07T22:27:29.921Z,14.13
2022-10-07T22:29:59.489Z,13.88
2022-10-07T22:32:27.616Z,14.02
2022-10-07T22:35:13.369Z,14.20
2022-10-07T22:37:41.780Z,14.82
2022-10-07T22:40:10.835Z,16.90
2022-10-07T22:42:39.026Z,20.13
2022-10-07T22:45:09.591Z,19.33
2022-10-07T22:47:39.536Z,19.45
2022-10-07T22:50:08.883Z,19.83
2022-10-07T22:52:37.228Z,22.88
2022-10-07T22:55:08.424Z,21.10
2022-10-07T22:57:37.417Z,20.48
2022-10-07T23:00:06.653Z,18.95
2022-10-07T23:02:37.854Z,19.10
2022-10-07T23:05:07.021Z,19.40
2022-10-07T23:07:35.739Z,19.65
2022-10-07T23:10:04.843Z,20.27
2022-10-07T23:12:33.058Z,20.17
2022-10-07T23:15:01.667Z,22.42
2022-10-07T23:17:30.440Z,20.20
2022-10-07T23:20:00.232Z,20.00
2022-10-07T23:22:28.675Z,19.98
2022-10-07T23:24:56.938Z,18.75
2022-10-07T23:27:25.340Z,18.23
2022-10-07T23:29:53.728Z,18.45
2022-10-07T23:32:21.991Z,19.15
2022-10-07T23:34:50.133Z,18.52
2022-10-07T23:37:19.969Z,20.27
2022-10-07T23:39:49.745Z,18.13
2022-10-07T23:42:17.905Z,20.17
2022-10-07T23:44:46.219Z,17.77
2022-10-07T23:47:14.466Z,19.42
2022-10-07T23:49:42.648Z,17.45
2022-10-07T23:52:11.275Z,17.63
2022-10-07T23:54:40.869Z,18.95
2022-10-07T23:57:09.030Z,17.75
2022-10-07T23:59:37.389Z,17.83
